createdAt,value
2022-09-28T00:01:24.128Z,57.90
2022-09-28T00:03:54.346Z,57.85
2022-09-28T00:06:25.672Z,57.96
2022-09-28T00:08:54.039Z,57.84
2022-09-28T00:11:24.369Z,58.12
2022-09-28T00:13:56.457Z,57.94
2022-09-28T00:16:27.686Z,57.83
2022-09-28T00:18:56.268Z,57.81
2022-09-28T00:21:27.757Z,57.81
2022-09-28T00:24:15.280Z,58.05
2022-09-28T00:26:46.775Z,57.99
2022-09-28T00:29:19.846Z,58.40
2022-09-28T00:31:48.602Z,57.91
2022-09-28T00:34:17.870Z,58.26
2022-09-28T00:36:48.918Z,58.18
2022-09-28T00:39:18.278Z,57.77
2022-09-28T00:41:47.507Z,58.33
2022-09-28T00:44:39.244Z,58.39
2022-09-28T00:47:31.448Z,58.08
2022-09-28T00:50:02.727Z,58.21
2022-09-28T00:52:37.407Z,57.99
2022-09-28T00:55:08.218Z,58.10
2022-09-28T00:57:37.792Z,58.24
2022-09-28T01:00:07.527Z,58.28
2022-09-28T01:02:35.878Z,57.96
2022-09-28T01:05:05.296Z,57.93
2022-09-28T01:07:35.750Z,58.20
2022-09-28T01:10:05.013Z,58.11
2022-09-28T01:12:33.363Z,58.46
2022-09-28T01:15:02.156Z,58.18
2022-09-28T01:17:38.134Z,57.90
2022-09-28T01:20:35.183Z,58.07
2022-09-28T01:23:38.864Z,57.98
2022-09-28T01:26:34.101Z,58.36
2022-09-28T01:29:06.065Z,57.81
2022-09-28T01:31:37.168Z,57.85
2022-09-28T01:34:09.284Z,57.91
2022-09-28T01:36:42.775Z,58.28
2022-09-28T01:39:13.021Z,57.92
2022-09-28T01:41:45.105Z,58.05
2022-09-28T01:44:17.417Z,58.03
2022-09-28T01:46:48.231Z,58.20
2022-09-28T01:49:20.143Z,58.16
2022-09-28T01:51:53.034Z,58.14
2022-09-28T01:54:24.664Z,58.23
2022-09-28T01:56:56.971Z,58.45
2022-09-28T01:59:27.298Z,58.21
2022-09-28T02:02:00.656Z,58.33
2022-09-28T02:04:34.971Z,58.11
2022-09-28T02:07:05.867Z,58.15
2022-09-28T02:09:37.033Z,58.21
2022-09-28T02:12:11.567Z,58.22
2022-09-28T02:14:42.107Z,58.21
2022-09-28T02:17:10.851Z,58.13
2022-09-28T02:19:39.765Z,58.33
2022-09-28T02:22:14.735Z,58.67
2022-09-28T02:24:50.489Z,58.26
2022-09-28T02:27:31.032Z,58.46
2022-09-28T02:29:59.343Z,58.08
2022-09-28T02:32:28.429Z,58.18
2022-09-28T02:34:56.928Z,58.04
2022-09-28T02:37:25.408Z,58.40
2022-09-28T02:39:53.778Z,58.18
2022-09-28T02:42:26.049Z,58.03
2022-09-28T02:45:04.330Z,58.35
2022-09-28T02:47:46.660Z,58.48
2022-09-28T02:50:21.317Z,58.37
2022-09-28T02:53:08.800Z,58.40
2022-09-28T02:55:47.137Z,58.26
2022-09-28T02:58:23.177Z,58.04
2022-09-28T03:00:56.913Z,58.33
2022-09-28T03:03:31.774Z,58.39
2022-09-28T03:06:04.086Z,58.38
2022-09-28T03:08:42.132Z,58.42
2022-09-28T03:11:17.315Z,58.63
2022-09-28T03:13:50.684Z,58.59
2022-09-28T03:16:21.088Z,58.23
2022-09-28T03:18:50.933Z,58.37
2022-09-28T03:21:20.137Z,58.32
2022-09-28T03:23:48.563Z,58.35
2022-09-28T03:26:19.819Z,58.38
2022-09-28T03:28:49.729Z,58.28
2022-09-28T03:31:23.904Z,58.77
2022-09-28T03:33:52.985Z,58.78
2022-09-28T03:36:21.434Z,58.65
2022-09-28T03:38:49.770Z,58.70
2022-09-28T03:41:18.200Z,58.38
2022-09-28T03:43:46.647Z,58.75
2022-09-28T03:46:17.654Z,58.29
2022-09-28T03:48:49.912Z,58.76
2022-09-28T03:51:20.660Z,58.44
2022-09-28T03:53:49.061Z,58.36
2022-09-28T03:56:17.413Z,58.31
2022-09-28T03:58:45.767Z,58.41
2022-09-28T04:01:17.842Z,58.30
2022-09-28T04:03:49.223Z,58.55
2022-09-28T04:06:17.942Z,58.39
2022-09-28T04:08:46.256Z,58.51
2022-09-28T04:11:15.225Z,58.53
2022-09-28T04:13:43.695Z,58.45
2022-09-28T04:16:15.762Z,58.92
2022-09-28T04:18:51.410Z,58.55
2022-09-28T04:21:46.692Z,58.74
2022-09-28T04:24:16.260Z,58.56
2022-09-28T04:26:44.725Z,58.61
2022-09-28T04:29:16.023Z,58.78
2022-09-28T04:31:55.530Z,58.24
2022-09-28T04:34:45.474Z,58.27
2022-09-28T04:37:14.898Z,58.76
2022-09-28T04:39:47.583Z,58.65
2022-09-28T04:42:19.188Z,58.54
2022-09-28T04:44:47.910Z,58.65
2022-09-28T04:47:16.194Z,58.91
2022-09-28T04:49:48.713Z,58.87
2022-09-28T04:52:24.258Z,58.80
2022-09-28T04:54:54.367Z,58.38
2022-09-28T04:57:22.699Z,58.60
2022-09-28T04:59:51.128Z,58.73
2022-09-28T05:02:20.437Z,58.75
2022-09-28T05:05:12.303Z,58.84
2022-09-28T05:07:59.349Z,58.49
2022-09-28T05:10:27.693Z,58.93
2022-09-28T05:12:56.027Z,58.68
2022-09-28T05:15:24.612Z,58.78
2022-09-28T05:17:53.748Z,59.04
2022-09-28T05:20:31.509Z,58.85
2022-09-28T05:22:59.943Z,58.85
2022-09-28T05:25:28.329Z,58.69
2022-09-28T05:28:26.168Z,58.98
2022-09-28T05:31:15.266Z,58.94
2022-09-28T05:34:03.934Z,59.12
2022-09-28T05:36:33.659Z,58.86
2022-09-28T05:39:03.951Z,59.20
2022-09-28T05:41:32.842Z,58.92
2022-09-28T05:44:02.332Z,58.74
2022-09-28T05:46:32.148Z,58.50
2022-09-28T05:49:02.250Z,58.70
2022-09-28T05:51:30.737Z,59.20
2022-09-28T05:54:05.684Z,58.56
2022-09-28T05:56:37.111Z,58.94
2022-09-28T05:59:07.748Z,59.02
2022-09-28T06:01:36.162Z,59.05
2022-09-28T06:04:08.951Z,58.96
2022-09-28T06:06:38.393Z,59.01
2022-09-28T06:09:08.177Z,58.98
2022-09-28T06:11:50.515Z,59.21
2022-09-28T06:14:24.953Z,59.11
2022-09-28T06:16:54.441Z,59.13
2022-09-28T06:19:23.997Z,58.76
2022-09-28T06:22:07.513Z,58.90
2022-09-28T06:24:46.246Z,58.87
2022-09-28T06:27:14.558Z,58.61
2022-09-28T06:29:43.823Z,58.73
2022-09-28T06:32:13.872Z,58.99
2022-09-28T06:34:43.513Z,58.80
2022-09-28T06:37:11.969Z,58.78
2022-09-28T06:39:40.235Z,59.05
2022-09-28T06:42:10.367Z,58.60
2022-09-28T06:45:04.643Z,58.83
2022-09-28T06:47:55.188Z,58.96
2022-09-28T06:50:33.272Z,59.02
2022-09-28T06:53:20.110Z,58.50
2022-09-28T06:55:56.836Z,58.70
2022-09-28T06:58:28.189Z,58.69
2022-09-28T07:01:00.024Z,58.63
2022-09-28T07:03:30.406Z,59.23
2022-09-28T07:06:02.059Z,58.66
2022-09-28T07:09:01.364Z,58.56
2022-09-28T07:11:59.835Z,58.92
2022-09-28T07:14:47.885Z,59.15
2022-09-28T07:17:17.089Z,59.00
2022-09-28T07:19:45.482Z,58.88
2022-09-28T07:22:18.738Z,58.99
2022-09-28T07:24:48.798Z,58.73
2022-09-28T07:27:37.042Z,58.55
2022-09-28T07:30:35.595Z,58.81
2022-09-28T07:33:17.230Z,59.06
2022-09-28T07:35:52.163Z,58.84
2022-09-28T07:38:21.183Z,59.08
2022-09-28T07:41:04.460Z,58.98
2022-09-28T07:43:33.757Z,59.17
2022-09-28T07:46:11.847Z,58.98
2022-09-28T07:48:45.711Z,58.69
2022-09-28T07:51:25.845Z,58.74
2022-09-28T07:54:12.699Z,58.50
2022-09-28T07:56:56.311Z,59.07
2022-09-28T07:59:49.934Z,58.72
2022-09-28T08:02:43.757Z,58.74
2022-09-28T08:05:13.461Z,58.63
2022-09-28T08:07:41.777Z,58.63
2022-09-28T08:10:11.152Z,58.76
2022-09-28T08:13:04.776Z,58.68
2022-09-28T08:16:02.498Z,58.71
2022-09-28T08:18:40.960Z,58.93
2022-09-28T08:21:28.734Z,58.86
2022-09-28T08:23:57.492Z,58.94
2022-09-28T08:26:25.959Z,59.09
2022-09-28T08:28:54.259Z,58.85
2022-09-28T08:31:49.056Z,58.69
2022-09-28T08:34:42.381Z,58.85
2022-09-28T08:37:23.245Z,58.84
2022-09-28T08:40:16.420Z,59.01
2022-09-28T08:43:02.253Z,58.75
2022-09-28T08:46:06.645Z,59.29
2022-09-28T08:49:13.767Z,59.13
2022-09-28T08:52:01.051Z,59.15
2022-09-28T08:54:51.667Z,58.85
2022-09-28T08:57:30.756Z,59.06
2022-09-28T09:00:00.703Z,59.14
2022-09-28T09:02:34.223Z,58.82
2022-09-28T09:05:15.933Z,58.64
2022-09-28T09:08:23.247Z,58.85
2022-09-28T09:10:53.775Z,58.93
2022-09-28T09:13:44.198Z,58.74
2022-09-28T09:16:20.909Z,58.79
2022-09-28T09:19:20.337Z,58.62
2022-09-28T09:22:17.675Z,58.79
2022-09-28T09:24:51.405Z,58.49
2022-09-28T09:27:37.991Z,58.92
2022-09-28T09:30:08.293Z,58.43
2022-09-28T09:32:55.534Z,58.92
2022-09-28T09:35:53.266Z,58.62
2022-09-28T09:38:50.863Z,58.84
2022-09-28T09:41:47.063Z,58.51
2022-09-28T09:45:03.265Z,58.81
2022-09-28T09:47:59.189Z,58.80
2022-09-28T09:50:31.030Z,58.88
2022-09-28T09:53:04.496Z,58.81
2022-09-28T09:55:40.156Z,58.65
2022-09-28T09:58:32.707Z,58.49
2022-09-28T10:01:30.509Z,58.71
2022-09-28T10:04:22.271Z,58.48
2022-09-28T10:06:54.566Z,58.83
2022-09-28T10:09:25.751Z,58.47
2022-09-28T10:11:54.539Z,58.75
2022-09-28T10:14:25.931Z,59.13
2022-09-28T10:17:03.993Z,58.59
2022-09-28T10:20:13.845Z,58.46
2022-09-28T10:23:03.181Z,58.21
2022-09-28T10:25:34.185Z,58.69
2022-09-28T10:28:06.179Z,58.26
2022-09-28T10:30:44.546Z,58.70
2022-09-28T10:33:29.760Z,58.88
2022-09-28T10:35:58.582Z,58.76
2022-09-28T10:38:27.416Z,58.44
2022-09-28T10:41:00.264Z,58.45
2022-09-28T10:44:05.932Z,58.28
2022-09-28T10:47:03.202Z,58.49
2022-09-28T10:49:45.887Z,58.37
2022-09-28T10:52:39.736Z,58.05
2022-09-28T10:55:28.392Z,58.64
2022-09-28T10:57:56.876Z,58.46
2022-09-28T11:00:34.614Z,58.45
2022-09-28T11:03:24.791Z,58.77
2022-09-28T11:05:58.261Z,58.28
2022-09-28T11:08:30.836Z,58.35
2022-09-28T11:11:07.137Z,58.78
2022-09-28T11:13:41.040Z,58.22
2022-09-28T11:19:40.861Z,58.61
2022-09-28T11:22:22.073Z,58.42
2022-09-28T11:24:53.413Z,58.49
2022-09-28T11:27:23.825Z,58.50
2022-09-28T11:29:58.227Z,58.04
2022-09-28T11:32:43.349Z,58.50
2022-09-28T11:35:25.123Z,58.39
2022-09-28T11:38:04.735Z,58.13
2022-09-28T11:41:23.979Z,58.50
2022-09-28T11:44:05.937Z,58.19
2022-09-28T11:46:42.309Z,58.53
2022-09-28T11:49:24.014Z,58.27
2022-09-28T11:51:54.998Z,58.18
2022-09-28T11:54:29.900Z,58.25
2022-09-28T11:57:00.268Z,58.30
2022-09-28T11:59:32.561Z,58.14
2022-09-28T12:02:04.981Z,58.11
2022-09-28T12:04:45.473Z,58.33
2022-09-28T12:07:19.193Z,57.83
2022-09-28T12:09:52.599Z,58.16
2022-09-28T12:12:25.885Z,57.90
2022-09-28T12:15:00.847Z,57.95
2022-09-28T12:17:33.426Z,57.83
2022-09-28T12:20:05.027Z,57.69
2022-09-28T12:22:39.363Z,57.98
2022-09-28T12:25:11.469Z,58.13
2022-09-28T12:27:42.597Z,57.87
2022-09-28T12:30:15.179Z,58.10
2022-09-28T12:32:47.374Z,58.11
2022-09-28T12:35:17.239Z,58.22
2022-09-28T12:38:00.949Z,58.09
2022-09-28T12:40:38.726Z,58.23
2022-09-28T12:43:34.659Z,58.26
2022-09-28T12:46:31.742Z,57.87
2022-09-28T12:52:29.003Z,57.98
2022-09-28T12:55:19.028Z,58.28
2022-09-28T12:57:54.852Z,58.19
2022-09-28T13:00:25.141Z,57.90
2022-09-28T13:03:26.993Z,57.71
2022-09-28T13:06:14.060Z,58.11
2022-09-28T13:08:48.775Z,58.28
2022-09-28T13:11:23.459Z,57.89
2022-09-28T13:14:01.819Z,57.80
2022-09-28T13:16:36.655Z,58.00
2022-09-28T13:19:13.082Z,58.08
2022-09-28T13:21:44.994Z,57.88
2022-09-28T13:24:32.129Z,57.71
2022-09-28T13:27:07.772Z,57.95
2022-09-28T13:29:36.807Z,57.57
2022-09-28T13:32:05.929Z,57.67
2022-09-28T13:34:35.496Z,57.58
2022-09-28T13:37:21.561Z,57.37
2022-09-28T13:39:52.905Z,57.27
2022-09-28T13:42:34.166Z,57.46
2022-09-28T13:45:15.878Z,57.17
2022-09-28T13:48:06.566Z,57.46
2022-09-28T13:50:44.246Z,57.00
2022-09-28T13:53:19.696Z,57.31
2022-09-28T13:55:54.705Z,57.29
2022-09-28T13:58:26.990Z,57.53
2022-09-28T14:01:00.297Z,57.30
2022-09-28T14:03:42.689Z,57.35
2022-09-28T14:06:23.443Z,57.30
2022-09-28T14:09:10.774Z,57.39
2022-09-28T14:11:44.074Z,56.94
2022-09-28T14:14:29.125Z,57.31
2022-09-28T14:17:50.049Z,57.23
2022-09-28T14:20:26.157Z,57.24
2022-09-28T14:23:14.944Z,57.60
2022-09-28T14:25:46.229Z,57.10
2022-09-28T14:28:27.291Z,57.31
2022-09-28T14:30:58.871Z,57.21
2022-09-28T14:33:29.719Z,57.06
2022-09-28T14:36:02.250Z,57.36
2022-09-28T14:38:58.975Z,57.22
2022-09-28T14:41:31.243Z,57.28
2022-09-28T14:44:02.591Z,57.60
2022-09-28T14:46:36.757Z,57.53
2022-09-28T14:49:06.980Z,57.36
2022-09-28T14:51:58.717Z,57.36
2022-09-28T14:54:28.571Z,57.61
2022-09-28T14:57:08.922Z,57.28
2022-09-28T14:59:43.399Z,57.48
2022-09-28T15:02:18.404Z,57.29
2022-09-28T15:04:51.096Z,57.58
2022-09-28T15:07:26.515Z,57.09
2022-09-28T15:09:56.541Z,57.55
2022-09-28T15:12:27.440Z,57.72
2022-09-28T15:14:57.881Z,57.41
2022-09-28T15:17:29.719Z,57.47
2022-09-28T15:20:21.021Z,57.28
2022-09-28T15:22:51.838Z,57.79
2022-09-28T15:25:22.159Z,57.51
2022-09-28T15:27:54.215Z,57.76
2022-09-28T15:30:26.415Z,57.83
2022-09-28T15:32:56.941Z,57.59
2022-09-28T15:35:26.471Z,57.93
2022-09-28T15:37:56.404Z,58.07
2022-09-28T15:40:36.724Z,57.36
2022-09-28T15:43:23.521Z,57.98
2022-09-28T15:46:02.632Z,57.68
2022-09-28T15:48:32.608Z,57.79
2022-09-28T15:51:06.158Z,57.71
2022-09-28T15:53:35.837Z,57.66
2022-09-28T15:59:31.768Z,58.08
2022-09-28T16:02:09.365Z,58.11
2022-09-28T16:04:40.733Z,58.12
2022-09-28T16:07:21.021Z,58.54
2022-09-28T16:10:06.740Z,58.01
2022-09-28T16:12:45.958Z,58.25
2022-09-28T16:15:20.330Z,57.73
2022-09-28T16:17:53.401Z,57.98
2022-09-28T16:20:29.205Z,58.06
2022-09-28T16:23:03.554Z,58.04
2022-09-28T16:25:34.402Z,58.24
2022-09-28T16:28:02.779Z,58.22
2022-09-28T16:31:20.862Z,58.14
2022-09-28T16:33:55.004Z,58.26
2022-09-28T16:36:24.005Z,58.50
2022-09-28T16:38:54.374Z,58.42
2022-09-28T16:41:26.805Z,58.55
2022-09-28T16:44:00.967Z,58.20
2022-09-28T16:46:32.469Z,58.23
2022-09-28T16:49:03.026Z,58.47
2022-09-28T16:51:31.278Z,58.41
2022-09-28T16:54:19.020Z,58.37
2022-09-28T16:56:48.683Z,58.60
2022-09-28T16:59:17.154Z,58.05
2022-09-28T17:01:45.525Z,58.10
2022-09-28T17:04:13.888Z,58.32
2022-09-28T17:06:43.444Z,58.75
2022-09-28T17:09:13.441Z,58.43
2022-09-28T17:11:42.124Z,58.55
2022-09-28T17:14:11.837Z,58.51
2022-09-28T17:17:06.499Z,58.29
2022-09-28T17:19:29.756Z,58.48
2022-09-28T17:21:59.055Z,58.52
2022-09-28T17:24:27.312Z,58.40
2022-09-28T17:26:55.735Z,58.52
2022-09-28T17:29:25.449Z,58.52
2022-09-28T17:31:54.397Z,58.39
2022-09-28T17:34:23.752Z,58.76
2022-09-28T17:36:56.285Z,58.68
2022-09-28T17:39:25.120Z,58.51
2022-09-28T17:41:53.544Z,58.81
2022-09-28T17:44:22.746Z,59.03
2022-09-28T17:46:53.847Z,58.70
2022-09-28T17:49:22.142Z,59.13
2022-09-28T17:51:52.835Z,59.04
2022-09-28T17:54:22.583Z,58.63
2022-09-28T17:56:51.082Z,59.00
2022-09-28T17:59:19.658Z,59.35
2022-09-28T18:01:48.448Z,59.10
2022-09-28T18:04:47.184Z,59.06
2022-09-28T18:07:07.592Z,58.79
2022-09-28T18:09:35.911Z,59.29
2022-09-28T18:12:06.221Z,59.42
2022-09-28T18:14:35.703Z,58.78
2022-09-28T18:17:04.568Z,58.88
2022-09-28T18:19:34.223Z,59.27
2022-09-28T18:22:02.581Z,59.23
2022-09-28T18:24:32.371Z,59.16
2022-09-28T18:27:00.910Z,59.11
2022-09-28T18:29:33.102Z,58.99
2022-09-28T18:32:02.834Z,59.37
2022-09-28T18:34:31.172Z,59.36
2022-09-28T18:37:00.879Z,59.25
2022-09-28T18:39:29.348Z,59.46
2022-09-28T18:41:57.777Z,59.20
2022-09-28T18:44:26.172Z,59.21
2022-09-28T18:46:54.447Z,59.31
2022-09-28T18:49:23.168Z,59.28
2022-09-28T18:51:52.227Z,59.26
2022-09-28T18:54:21.919Z,59.21
2022-09-28T18:56:51.251Z,59.37
2022-09-28T18:59:19.559Z,59.09
2022-09-28T19:01:47.919Z,59.27
2022-09-28T19:04:16.750Z,59.07
2022-09-28T19:06:47.571Z,59.30
2022-09-28T19:09:15.997Z,59.22
2022-09-28T19:11:45.697Z,58.85
2022-09-28T19:14:15.726Z,58.96
2022-09-28T19:16:44.936Z,59.16
2022-09-28T19:19:14.632Z,59.32
2022-09-28T19:21:44.186Z,59.20
2022-09-28T19:24:14.377Z,59.30
2022-09-28T19:26:43.008Z,59.43
2022-09-28T19:29:12.864Z,59.27
2022-09-28T19:31:41.581Z,59.26
2022-09-28T19:34:13.350Z,58.90
2022-09-28T19:36:43.060Z,59.08
2022-09-28T19:39:14.498Z,59.22
2022-09-28T19:41:47.839Z,59.21
2022-09-28T19:44:24.548Z,58.80
2022-09-28T19:46:54.729Z,59.43
2022-09-28T19:49:25.216Z,59.34
2022-09-28T19:52:13.916Z,59.32
2022-09-28T19:54:44.826Z,58.90
2022-09-28T19:57:15.865Z,58.94
2022-09-28T19:59:48.458Z,59.15
2022-09-28T20:02:20.913Z,59.04
2022-09-28T20:04:49.599Z,59.25
2022-09-28T20:07:17.924Z,59.48
2022-09-28T20:09:46.264Z,59.14
2022-09-28T20:12:14.560Z,59.27
2022-09-28T20:14:42.878Z,59.20
2022-09-28T20:17:12.800Z,58.94
2022-09-28T20:19:41.094Z,59.31
2022-09-28T20:22:09.404Z,59.11
2022-09-28T20:24:37.781Z,59.26
2022-09-28T20:27:06.149Z,59.19
2022-09-28T20:29:34.693Z,59.32
2022-09-28T20:32:03.842Z,59.04
2022-09-28T20:34:34.223Z,59.22
2022-09-28T20:37:02.652Z,58.75
2022-09-28T20:39:30.994Z,59.18
2022-09-28T20:41:59.415Z,58.93
2022-09-28T20:44:27.948Z,59.12
2022-09-28T20:46:57.139Z,59.27
2022-09-28T20:49:27.162Z,59.32
2022-09-28T20:51:56.914Z,59.33
2022-09-28T20:54:25.527Z,59.02
2022-09-28T20:56:53.923Z,59.56
2022-09-28T20:59:25.886Z,59.47
2022-09-28T21:01:54.391Z,59.13
2022-09-28T21:04:22.776Z,59.34
2022-09-28T21:06:51.881Z,59.29
2022-09-28T21:09:21.540Z,59.42
2022-09-28T21:11:49.820Z,59.09
2022-09-28T21:14:18.527Z,59.24
2022-09-28T21:16:46.883Z,59.58
2022-09-28T21:19:15.221Z,59.35
2022-09-28T21:21:43.541Z,59.07
2022-09-28T21:24:12.005Z,59.43
2022-09-28T21:26:41.788Z,59.42
2022-09-28T21:29:12.918Z,59.21
2022-09-28T21:31:42.745Z,59.27
2022-09-28T21:34:13.205Z,59.33
2022-09-28T21:36:43.184Z,59.30
2022-09-28T21:39:11.796Z,59.43
2022-09-28T21:41:42.099Z,59.65
2022-09-28T21:44:10.569Z,59.27
2022-09-28T21:46:39.471Z,59.03
2022-09-28T21:49:09.080Z,59.05
2022-09-28T21:51:38.077Z,59.31
2022-09-28T21:54:06.621Z,59.46
2022-09-28T21:56:34.997Z,58.94
2022-09-28T21:59:04.715Z,59.55
2022-09-28T22:01:33.271Z,59.24
2022-09-28T22:04:01.998Z,59.50
2022-09-28T22:06:30.401Z,59.61
2022-09-28T22:08:59.005Z,59.36
2022-09-28T22:11:28.598Z,59.50
2022-09-28T22:13:59.224Z,59.74
2022-09-28T22:16:30.319Z,59.53
2022-09-28T22:18:58.822Z,59.80
2022-09-28T22:21:28.491Z,59.73
2022-09-28T22:24:00.854Z,59.57
2022-09-28T22:26:30.174Z,59.40
2022-09-28T22:28:59.821Z,59.44
2022-09-28T22:31:31.223Z,59.72
2022-09-28T22:33:59.985Z,59.24
2022-09-28T22:36:28.992Z,59.42
2022-09-28T22:38:58.277Z,59.46
2022-09-28T22:41:27.080Z,59.27
2022-09-28T22:43:55.705Z,59.83
2022-09-28T22:46:25.498Z,59.44
2022-09-28T22:48:56.826Z,59.21
2022-09-28T22:51:27.106Z,59.51
2022-09-28T22:53:56.518Z,59.34
2022-09-28T22:56:26.018Z,59.18
2022-09-28T22:58:55.417Z,59.71
2022-09-28T23:01:25.470Z,59.57
2022-09-28T23:04:21.382Z,59.56
2022-09-28T23:06:52.824Z,60.00
2022-09-28T23:09:31.339Z,59.81
2022-09-28T23:12:09.058Z,59.82
2022-09-28T23:14:53.147Z,59.84
2022-09-28T23:17:29.774Z,59.60
2022-09-28T23:20:24.973Z,59.61
2022-09-28T23:23:01.541Z,59.73
2022-09-28T23:25:38.222Z,60.11
2022-09-28T23:28:20.588Z,59.63
2022-09-28T23:31:11.725Z,59.52
2022-09-28T23:33:51.408Z,59.86
2022-09-28T23:36:38.015Z,59.97
2022-09-28T23:39:15.759Z,59.74
2022-09-28T23:42:01.411Z,59.56
2022-09-28T23:44:37.810Z,59.40
2022-09-28T23:47:12.575Z,59.71
2022-09-28T23:49:46.789Z,59.73
2022-09-28T23:52:21.712Z,59.98
2022-09-28T23:54:59.449Z,59.93
2022-09-28T23:57:34.910Z,59.72
